sensor_id;sensor_type;location;lat;lon;timestamp;P1;durP1;ratioP1;P2;durP2;ratioP2
78169;SDS011;67412;49.892;14.490;2024-02-26T00:02:20;21.45;;;8.45;;
78169;SDS011;67412;49.892;14.490;2024-02-26T00:04:45;22.95;;;8.52;;
78169;SDS011;67412;49.892;14.490;2024-02-26T00:07:11;28.10;;;9.80;;
78169;SDS011;67412;49.892;14.490;2024-02-26T00:09:36;73.70;;;14.65;;
78169;SDS011;67412;49.892;14.490;2024-02-26T00:12:02;65.72;;;13.57;;
78169;SDS011;67412;49.892;14.490;2024-02-26T00:14:29;34.40;;;11.73;;
78169;SDS011;67412;49.892;14.490;2024-02-26T00:16:54;38.75;;;11.93;;
78169;SDS011;67412;49.892;14.490;2024-02-26T00:19:20;83.57;;;15.95;;
78169;SDS011;67412;49.892;14.490;2024-02-26T00:21:45;36.60;;;10.13;;
78169;SDS011;67412;49.892;14.490;2024-02-26T00:24:11;24.80;;;8.25;;
78169;SDS011;67412;49.892;14.490;2024-02-26T00:26:36;20.50;;;7.75;;
78169;SDS011;67412;49.892;14.490;2024-02-26T00:29:02;18.08;;;7.32;;
78169;SDS011;67412;49.892;14.490;2024-02-26T00:31:27;18.85;;;6.65;;
78169;SDS011;67412;49.892;14.490;2024-02-26T00:33:52;18.10;;;6.82;;
78169;SDS011;67412;49.892;14.490;2024-02-26T00:36:18;16.92;;;6.78;;
78169;SDS011;67412;49.892;14.490;2024-02-26T00:38:44;16.40;;;6.75;;
78169;SDS011;67412;49.892;14.490;2024-02-26T00:43:36;14.85;;;5.60;;
78169;SDS011;67412;49.892;14.490;2024-02-26T00:46:04;12.70;;;5.25;;
78169;SDS011;67412;49.892;14.490;2024-02-26T00:48:29;15.95;;;5.68;;
78169;SDS011;67412;49.892;14.490;2024-02-26T00:50:55;18.90;;;6.10;;
78169;SDS011;67412;49.892;14.490;2024-02-26T00:53:20;13.93;;;4.93;;
78169;SDS011;67412;49.892;14.490;2024-02-26T00:55:45;13.85;;;5.28;;
78169;SDS011;67412;49.892;14.490;2024-02-26T00:58:11;16.30;;;5.15;;
78169;SDS011;67412;49.892;14.490;2024-02-26T01:00:36;15.07;;;5.78;;
78169;SDS011;67412;49.892;14.490;2024-02-26T01:03:02;15.57;;;5.88;;
78169;SDS011;67412;49.892;14.490;2024-02-26T01:05:28;17.38;;;5.72;;
78169;SDS011;67412;49.892;14.490;2024-02-26T01:07:54;16.65;;;5.88;;
78169;SDS011;67412;49.892;14.490;2024-02-26T01:10:19;21.73;;;6.50;;
78169;SDS011;67412;49.892;14.490;2024-02-26T01:12:44;18.50;;;5.80;;
78169;SDS011;67412;49.892;14.490;2024-02-26T01:15:10;14.68;;;5.28;;
78169;SDS011;67412;49.892;14.490;2024-02-26T01:17:35;15.40;;;5.30;;
78169;SDS011;67412;49.892;14.490;2024-02-26T01:20:00;17.20;;;5.47;;
78169;SDS011;67412;49.892;14.490;2024-02-26T01:22:26;17.90;;;5.88;;
78169;SDS011;67412;49.892;14.490;2024-02-26T01:24:51;20.02;;;7.32;;
78169;SDS011;67412;49.892;14.490;2024-02-26T01:27:16;19.15;;;6.57;;
78169;SDS011;67412;49.892;14.490;2024-02-26T01:29:42;19.13;;;7.07;;
78169;SDS011;67412;49.892;14.490;2024-02-26T01:32:07;18.60;;;6.82;;
78169;SDS011;67412;49.892;14.490;2024-02-26T01:34:33;20.73;;;6.80;;
78169;SDS011;67412;49.892;14.490;2024-02-26T01:36:58;18.70;;;6.72;;
78169;SDS011;67412;49.892;14.490;2024-02-26T01:39:24;21.50;;;7.10;;
78169;SDS011;67412;49.892;14.490;2024-02-26T01:41:49;21.20;;;7.22;;
78169;SDS011;67412;49.892;14.490;2024-02-26T01:44:14;17.52;;;6.18;;
78169;SDS011;67412;49.892;14.490;2024-02-26T01:46:40;18.52;;;6.40;;
78169;SDS011;67412;49.892;14.490;2024-02-26T01:49:05;17.88;;;6.40;;
78169;SDS011;67412;49.892;14.490;2024-02-26T01:51:31;19.38;;;7.13;;
78169;SDS011;67412;49.892;14.490;2024-02-26T01:53:58;20.08;;;6.53;;
78169;SDS011;67412;49.892;14.490;2024-02-26T01:56:26;17.35;;;6.07;;
78169;SDS011;67412;49.892;14.490;2024-02-26T01:58:55;20.50;;;6.53;;
78169;SDS011;67412;49.892;14.490;2024-02-26T02:01:21;16.45;;;6.13;;
78169;SDS011;67412;49.892;14.490;2024-02-26T02:03:50;14.40;;;5.95;;
78169;SDS011;67412;49.892;14.490;2024-02-26T02:06:15;18.95;;;6.03;;
78169;SDS011;67412;49.892;14.490;2024-02-26T02:08:41;18.52;;;5.78;;
78169;SDS011;67412;49.892;14.490;2024-02-26T02:11:07;15.63;;;5.45;;
78169;SDS011;67412;49.892;14.490;2024-02-26T02:13:35;17.00;;;5.47;;
78169;SDS011;67412;49.892;14.490;2024-02-26T02:16:00;15.45;;;5.22;;
78169;SDS011;67412;49.892;14.490;2024-02-26T02:18:25;14.02;;;5.47;;
78169;SDS011;67412;49.892;14.490;2024-02-26T02:20:51;14.98;;;5.57;;
78169;SDS011;67412;49.892;14.490;2024-02-26T02:23:16;13.88;;;4.60;;
78169;SDS011;67412;49.892;14.490;2024-02-26T02:25:41;12.30;;;5.30;;
78169;SDS011;67412;49.892;14.490;2024-02-26T02:28:07;15.60;;;5.63;;
78169;SDS011;67412;49.892;14.490;2024-02-26T02:30:32;15.30;;;5.28;;
78169;SDS011;67412;49.892;14.490;2024-02-26T02:33:00;16.42;;;5.57;;
78169;SDS011;67412;49.892;14.490;2024-02-26T02:35:26;17.27;;;6.18;;
78169;SDS011;67412;49.892;14.490;2024-02-26T02:37:51;15.50;;;5.85;;
78169;SDS011;67412;49.892;14.490;2024-02-26T02:40:17;18.23;;;6.75;;
78169;SDS011;67412;49.892;14.490;2024-02-26T02:42:42;24.33;;;7.85;;
78169;SDS011;67412;49.892;14.490;2024-02-26T02:45:08;18.98;;;6.75;;
78169;SDS011;67412;49.892;14.490;2024-02-26T02:47:35;19.05;;;5.90;;
78169;SDS011;67412;49.892;14.490;2024-02-26T02:50:02;20.05;;;5.90;;
78169;SDS011;67412;49.892;14.490;2024-02-26T02:52:27;13.77;;;4.75;;
78169;SDS011;67412;49.892;14.490;2024-02-26T02:54:53;16.70;;;5.82;;
78169;SDS011;67412;49.892;14.490;2024-02-26T02:57:18;14.63;;;5.53;;
78169;SDS011;67412;49.892;14.490;2024-02-26T02:59:44;16.17;;;5.32;;
78169;SDS011;67412;49.892;14.490;2024-02-26T03:02:09;17.77;;;5.95;;
78169;SDS011;67412;49.892;14.490;2024-02-26T03:04:34;18.70;;;6.15;;
78169;SDS011;67412;49.892;14.490;2024-02-26T03:07:00;15.43;;;5.43;;
78169;SDS011;67412;49.892;14.490;2024-02-26T03:09:25;14.77;;;5.93;;
78169;SDS011;67412;49.892;14.490;2024-02-26T03:11:50;16.15;;;5.72;;
78169;SDS011;67412;49.892;14.490;2024-02-26T03:14:16;15.80;;;5.72;;
78169;SDS011;67412;49.892;14.490;2024-02-26T03:16:41;17.25;;;6.35;;
78169;SDS011;67412;49.892;14.490;2024-02-26T03:19:06;16.75;;;6.07;;
78169;SDS011;67412;49.892;14.490;2024-02-26T03:21:32;15.35;;;5.97;;
78169;SDS011;67412;49.892;14.490;2024-02-26T03:23:57;18.25;;;6.10;;
78169;SDS011;67412;49.892;14.490;2024-02-26T03:26:23;17.85;;;7.05;;
78169;SDS011;67412;49.892;14.490;2024-02-26T03:28:48;18.95;;;6.78;;
78169;SDS011;67412;49.892;14.490;2024-02-26T03:31:14;23.55;;;8.00;;
78169;SDS011;67412;49.892;14.490;2024-02-26T03:33:39;18.50;;;6.95;;
78169;SDS011;67412;49.892;14.490;2024-02-26T03:36:05;21.38;;;8.20;;
78169;SDS011;67412;49.892;14.490;2024-02-26T03:38:32;23.60;;;7.78;;
78169;SDS011;67412;49.892;14.490;2024-02-26T03:40:58;32.10;;;9.02;;
78169;SDS011;67412;49.892;14.490;2024-02-26T03:43:23;25.00;;;8.10;;
78169;SDS011;67412;49.892;14.490;2024-02-26T03:45:48;18.40;;;7.15;;
78169;SDS011;67412;49.892;14.490;2024-02-26T03:48:14;16.38;;;6.13;;
78169;SDS011;67412;49.892;14.490;2024-02-26T03:50:39;19.25;;;6.35;;
78169;SDS011;67412;49.892;14.490;2024-02-26T03:53:05;19.67;;;7.10;;
78169;SDS011;67412;49.892;14.490;2024-02-26T03:55:30;15.77;;;6.45;;
78169;SDS011;67412;49.892;14.490;2024-02-26T03:57:56;17.63;;;7.03;;
78169;SDS011;67412;49.892;14.490;2024-02-26T04:00:21;21.05;;;7.88;;
78169;SDS011;67412;49.892;14.490;2024-02-26T04:02:47;20.98;;;6.82;;
78169;SDS011;67412;49.892;14.490;2024-02-26T04:05:13;17.80;;;6.38;;
78169;SDS011;67412;49.892;14.490;2024-02-26T04:07:39;23.48;;;6.72;;
78169;SDS011;67412;49.892;14.490;2024-02-26T04:10:09;19.23;;;6.60;;
78169;SDS011;67412;49.892;14.490;2024-02-26T04:12:35;18.33;;;6.50;;
78169;SDS011;67412;49.892;14.490;2024-02-26T04:15:00;15.95;;;6.20;;
78169;SDS011;67412;49.892;14.490;2024-02-26T04:17:26;22.70;;;6.40;;
78169;SDS011;67412;49.892;14.490;2024-02-26T04:19:51;20.75;;;7.22;;
78169;SDS011;67412;49.892;14.490;2024-02-26T04:22:17;21.85;;;7.60;;
78169;SDS011;67412;49.892;14.490;2024-02-26T04:24:42;17.17;;;6.40;;
78169;SDS011;67412;49.892;14.490;2024-02-26T04:27:07;18.83;;;6.75;;
78169;SDS011;67412;49.892;14.490;2024-02-26T04:29:33;17.38;;;6.60;;
78169;SDS011;67412;49.892;14.490;2024-02-26T04:31:58;15.57;;;5.95;;
78169;SDS011;67412;49.892;14.490;2024-02-26T04:34:23;18.38;;;6.05;;
78169;SDS011;67412;49.892;14.490;2024-02-26T04:36:49;16.52;;;6.07;;
78169;SDS011;67412;49.892;14.490;2024-02-26T04:39:14;19.42;;;5.60;;
78169;SDS011;67412;49.892;14.490;2024-02-26T04:41:39;16.40;;;5.82;;
78169;SDS011;67412;49.892;14.490;2024-02-26T04:44:05;18.42;;;6.10;;
78169;SDS011;67412;49.892;14.490;2024-02-26T04:46:30;15.82;;;6.60;;
78169;SDS011;67412;49.892;14.490;2024-02-26T04:48:56;18.48;;;6.85;;
78169;SDS011;67412;49.892;14.490;2024-02-26T04:51:21;20.63;;;7.22;;
78169;SDS011;67412;49.892;14.490;2024-02-26T04:53:46;17.38;;;6.53;;
78169;SDS011;67412;49.892;14.490;2024-02-26T04:56:12;18.17;;;6.22;;
78169;SDS011;67412;49.892;14.490;2024-02-26T04:58:37;21.70;;;7.25;;
78169;SDS011;67412;49.892;14.490;2024-02-26T05:01:03;25.38;;;7.82;;
78169;SDS011;67412;49.892;14.490;2024-02-26T05:03:28;24.35;;;7.63;;
78169;SDS011;67412;49.892;14.490;2024-02-26T05:05:54;23.00;;;8.70;;
78169;SDS011;67412;49.892;14.490;2024-02-26T05:08:20;21.15;;;6.57;;
78169;SDS011;67412;49.892;14.490;2024-02-26T05:10:45;22.88;;;6.82;;
78169;SDS011;67412;49.892;14.490;2024-02-26T05:13:11;18.42;;;6.30;;
78169;SDS011;67412;49.892;14.490;2024-02-26T05:15:36;15.18;;;5.55;;
78169;SDS011;67412;49.892;14.490;2024-02-26T05:18:02;18.45;;;5.40;;
78169;SDS011;67412;49.892;14.490;2024-02-26T05:20:27;20.75;;;7.32;;
78169;SDS011;67412;49.892;14.490;2024-02-26T05:22:53;19.75;;;6.72;;
78169;SDS011;67412;49.892;14.490;2024-02-26T05:25:19;19.10;;;6.90;;
78169;SDS011;67412;49.892;14.490;2024-02-26T05:27:44;22.85;;;6.50;;
78169;SDS011;67412;49.892;14.490;2024-02-26T05:30:10;18.27;;;7.03;;
78169;SDS011;67412;49.892;14.490;2024-02-26T05:32:36;18.30;;;6.50;;
78169;SDS011;67412;49.892;14.490;2024-02-26T05:35:01;16.38;;;5.90;;
78169;SDS011;67412;49.892;14.490;2024-02-26T05:37:28;12.07;;;4.80;;
78169;SDS011;67412;49.892;14.490;2024-02-26T05:39:54;14.30;;;5.32;;
78169;SDS011;67412;49.892;14.490;2024-02-26T05:42:19;13.65;;;5.00;;
78169;SDS011;67412;49.892;14.490;2024-02-26T05:44:45;14.13;;;4.45;;
78169;SDS011;67412;49.892;14.490;2024-02-26T05:47:10;14.98;;;4.68;;
78169;SDS011;67412;49.892;14.490;2024-02-26T05:49:36;15.13;;;5.40;;
78169;SDS011;67412;49.892;14.490;2024-02-26T05:52:01;14.40;;;5.20;;
78169;SDS011;67412;49.892;14.490;2024-02-26T05:54:27;13.93;;;4.90;;
78169;SDS011;67412;49.892;14.490;2024-02-26T05:56:52;17.42;;;6.38;;
78169;SDS011;67412;49.892;14.490;2024-02-26T05:59:18;20.75;;;6.60;;
78169;SDS011;67412;49.892;14.490;2024-02-26T06:01:43;18.30;;;6.95;;
78169;SDS011;67412;49.892;14.490;2024-02-26T06:04:08;18.38;;;6.82;;
78169;SDS011;67412;49.892;14.490;2024-02-26T06:06:34;21.60;;;7.32;;
78169;SDS011;67412;49.892;14.490;2024-02-26T06:08:59;22.38;;;7.97;;
78169;SDS011;67412;49.892;14.490;2024-02-26T06:11:24;23.40;;;9.13;;
78169;SDS011;67412;49.892;14.490;2024-02-26T06:13:49;29.48;;;9.02;;
78169;SDS011;67412;49.892;14.490;2024-02-26T06:16:15;23.08;;;7.95;;
78169;SDS011;67412;49.892;14.490;2024-02-26T06:18:41;19.70;;;7.85;;
78169;SDS011;67412;49.892;14.490;2024-02-26T06:21:09;26.05;;;7.68;;
78169;SDS011;67412;49.892;14.490;2024-02-26T06:23:38;24.15;;;9.00;;
78169;SDS011;67412;49.892;14.490;2024-02-26T06:26:05;27.42;;;9.10;;
78169;SDS011;67412;49.892;14.490;2024-02-26T06:28:30;25.25;;;9.15;;
78169;SDS011;67412;49.892;14.490;2024-02-26T06:30:58;26.70;;;10.07;;
78169;SDS011;67412;49.892;14.490;2024-02-26T06:33:23;29.55;;;9.65;;
78169;SDS011;67412;49.892;14.490;2024-02-26T06:35:48;27.30;;;10.13;;
78169;SDS011;67412;49.892;14.490;2024-02-26T06:38:14;28.73;;;9.77;;
78169;SDS011;67412;49.892;14.490;2024-02-26T06:40:39;34.08;;;11.23;;
78169;SDS011;67412;49.892;14.490;2024-02-26T06:43:05;87.88;;;25.83;;
78169;SDS011;67412;49.892;14.490;2024-02-26T06:45:31;37.10;;;12.77;;
78169;SDS011;67412;49.892;14.490;2024-02-26T06:47:56;29.38;;;10.98;;
78169;SDS011;67412;49.892;14.490;2024-02-26T06:50:21;89.38;;;29.45;;
78169;SDS011;67412;49.892;14.490;2024-02-26T06:52:47;36.53;;;13.48;;
78169;SDS011;67412;49.892;14.490;2024-02-26T06:55:13;33.90;;;12.35;;
78169;SDS011;67412;49.892;14.490;2024-02-26T06:57:38;33.92;;;12.57;;
78169;SDS011;67412;49.892;14.490;2024-02-26T07:00:04;28.15;;;11.05;;
78169;SDS011;67412;49.892;14.490;2024-02-26T07:02:30;34.85;;;12.63;;
78169;SDS011;67412;49.892;14.490;2024-02-26T07:04:55;28.58;;;11.30;;
78169;SDS011;67412;49.892;14.490;2024-02-26T07:07:23;33.28;;;10.98;;
78169;SDS011;67412;49.892;14.490;2024-02-26T07:09:48;26.30;;;8.73;;
78169;SDS011;67412;49.892;14.490;2024-02-26T07:12:14;30.67;;;9.45;;
78169;SDS011;67412;49.892;14.490;2024-02-26T07:14:40;28.35;;;10.93;;
78169;SDS011;67412;49.892;14.490;2024-02-26T07:17:06;30.90;;;11.48;;
78169;SDS011;67412;49.892;14.490;2024-02-26T07:19:32;40.35;;;13.63;;
78169;SDS011;67412;49.892;14.490;2024-02-26T07:21:58;39.47;;;16.20;;
78169;SDS011;67412;49.892;14.490;2024-02-26T07:24:23;34.75;;;13.35;;
78169;SDS011;67412;49.892;14.490;2024-02-26T07:26:48;45.65;;;13.45;;
78169;SDS011;67412;49.892;14.490;2024-02-26T07:29:14;60.92;;;19.23;;
78169;SDS011;67412;49.892;14.490;2024-02-26T07:31:39;47.67;;;16.65;;
78169;SDS011;67412;49.892;14.490;2024-02-26T07:34:04;33.10;;;12.52;;
78169;SDS011;67412;49.892;14.490;2024-02-26T07:36:30;27.80;;;9.55;;
78169;SDS011;67412;49.892;14.490;2024-02-26T07:38:55;24.20;;;8.52;;
78169;SDS011;67412;49.892;14.490;2024-02-26T07:41:20;23.80;;;7.60;;
78169;SDS011;67412;49.892;14.490;2024-02-26T07:43:46;23.25;;;8.27;;
78169;SDS011;67412;49.892;14.490;2024-02-26T07:46:11;32.22;;;9.75;;
78169;SDS011;67412;49.892;14.490;2024-02-26T07:48:37;29.25;;;11.05;;
78169;SDS011;67412;49.892;14.490;2024-02-26T07:51:03;31.48;;;11.10;;
78169;SDS011;67412;49.892;14.490;2024-02-26T07:53:29;28.52;;;9.50;;
78169;SDS011;67412;49.892;14.490;2024-02-26T07:55:55;27.63;;;8.80;;
78169;SDS011;67412;49.892;14.490;2024-02-26T07:58:20;21.75;;;8.40;;
78169;SDS011;67412;49.892;14.490;2024-02-26T08:00:46;19.77;;;7.55;;
78169;SDS011;67412;49.892;14.490;2024-02-26T08:03:12;21.98;;;7.97;;
78169;SDS011;67412;49.892;14.490;2024-02-26T08:05:38;17.75;;;6.65;;
78169;SDS011;67412;49.892;14.490;2024-02-26T08:08:05;15.93;;;6.28;;
78169;SDS011;67412;49.892;14.490;2024-02-26T08:10:31;18.05;;;6.47;;
78169;SDS011;67412;49.892;14.490;2024-02-26T08:12:56;19.88;;;6.82;;
78169;SDS011;67412;49.892;14.490;2024-02-26T08:15:29;20.80;;;7.05;;
78169;SDS011;67412;49.892;14.490;2024-02-26T08:17:55;21.75;;;7.05;;
78169;SDS011;67412;49.892;14.490;2024-02-26T08:20:21;19.50;;;7.35;;
78169;SDS011;67412;49.892;14.490;2024-02-26T08:22:46;21.13;;;7.53;;
78169;SDS011;67412;49.892;14.490;2024-02-26T08:25:11;17.20;;;7.47;;
78169;SDS011;67412;49.892;14.490;2024-02-26T08:27:36;18.58;;;7.95;;
78169;SDS011;67412;49.892;14.490;2024-02-26T08:30:02;26.50;;;8.95;;
78169;SDS011;67412;49.892;14.490;2024-02-26T08:32:27;20.35;;;8.57;;
78169;SDS011;67412;49.892;14.490;2024-02-26T08:34:53;24.00;;;9.13;;
78169;SDS011;67412;49.892;14.490;2024-02-26T08:37:18;24.27;;;9.00;;
78169;SDS011;67412;49.892;14.490;2024-02-26T08:39:43;21.70;;;8.65;;
78169;SDS011;67412;49.892;14.490;2024-02-26T08:42:10;23.80;;;9.07;;
78169;SDS011;67412;49.892;14.490;2024-02-26T08:44:36;28.85;;;9.75;;
78169;SDS011;67412;49.892;14.490;2024-02-26T08:47:01;21.92;;;8.55;;
78169;SDS011;67412;49.892;14.490;2024-02-26T08:49:27;27.15;;;9.88;;
78169;SDS011;67412;49.892;14.490;2024-02-26T08:51:52;28.02;;;10.20;;
78169;SDS011;67412;49.892;14.490;2024-02-26T08:54:18;26.50;;;9.57;;
78169;SDS011;67412;49.892;14.490;2024-02-26T08:56:43;33.40;;;10.95;;
78169;SDS011;67412;49.892;14.490;2024-02-26T08:59:09;25.15;;;9.63;;
78169;SDS011;67412;49.892;14.490;2024-02-26T09:01:34;27.55;;;9.65;;
78169;SDS011;67412;49.892;14.490;2024-02-26T09:03:59;26.25;;;9.52;;
78169;SDS011;67412;49.892;14.490;2024-02-26T09:06:25;25.38;;;9.80;;
78169;SDS011;67412;49.892;14.490;2024-02-26T09:08:50;30.38;;;10.75;;
78169;SDS011;67412;49.892;14.490;2024-02-26T09:11:16;40.67;;;12.55;;
78169;SDS011;67412;49.892;14.490;2024-02-26T09:13:41;31.60;;;10.25;;
78169;SDS011;67412;49.892;14.490;2024-02-26T09:16:07;25.20;;;9.77;;
78169;SDS011;67412;49.892;14.490;2024-02-26T09:18:32;30.83;;;11.07;;
78169;SDS011;67412;49.892;14.490;2024-02-26T09:20:58;30.25;;;12.15;;
78169;SDS011;67412;49.892;14.490;2024-02-26T09:23:23;31.55;;;11.65;;
78169;SDS011;67412;49.892;14.490;2024-02-26T09:25:49;34.10;;;12.43;;
78169;SDS011;67412;49.892;14.490;2024-02-26T09:28:14;30.75;;;11.10;;
78169;SDS011;67412;49.892;14.490;2024-02-26T09:30:42;24.90;;;9.60;;
78169;SDS011;67412;49.892;14.490;2024-02-26T09:33:08;32.83;;;10.80;;
78169;SDS011;67412;49.892;14.490;2024-02-26T09:35:33;23.27;;;8.93;;
78169;SDS011;67412;49.892;14.490;2024-02-26T09:37:59;22.90;;;9.38;;
78169;SDS011;67412;49.892;14.490;2024-02-26T09:40:24;22.30;;;8.75;;
78169;SDS011;67412;49.892;14.490;2024-02-26T09:42:49;20.08;;;6.88;;
78169;SDS011;67412;49.892;14.490;2024-02-26T09:45:24;20.80;;;6.80;;
78169;SDS011;67412;49.892;14.490;2024-02-26T09:47:52;19.92;;;7.13;;
78169;SDS011;67412;49.892;14.490;2024-02-26T09:50:20;18.38;;;7.65;;
78169;SDS011;67412;49.892;14.490;2024-02-26T09:52:47;18.92;;;7.72;;
78169;SDS011;67412;49.892;14.490;2024-02-26T09:55:13;18.92;;;7.10;;
78169;SDS011;67412;49.892;14.490;2024-02-26T09:57:39;19.67;;;6.30;;
78169;SDS011;67412;49.892;14.490;2024-02-26T10:00:10;17.45;;;7.07;;
78169;SDS011;67412;49.892;14.490;2024-02-26T10:02:39;22.13;;;7.72;;
78169;SDS011;67412;49.892;14.490;2024-02-26T10:05:05;17.38;;;6.35;;
78169;SDS011;67412;49.892;14.490;2024-02-26T10:07:35;15.80;;;6.00;;
78169;SDS011;67412;49.892;14.490;2024-02-26T10:10:01;15.70;;;6.47;;
78169;SDS011;67412;49.892;14.490;2024-02-26T10:12:27;17.83;;;6.70;;
78169;SDS011;67412;49.892;14.490;2024-02-26T10:14:54;16.20;;;7.00;;
78169;SDS011;67412;49.892;14.490;2024-02-26T10:17:19;18.38;;;6.70;;
78169;SDS011;67412;49.892;14.490;2024-02-26T10:19:45;19.55;;;7.43;;
78169;SDS011;67412;49.892;14.490;2024-02-26T10:22:10;19.30;;;7.63;;
78169;SDS011;67412;49.892;14.490;2024-02-26T10:24:36;20.13;;;8.25;;
78169;SDS011;67412;49.892;14.490;2024-02-26T10:27:01;19.77;;;8.45;;
78169;SDS011;67412;49.892;14.490;2024-02-26T10:29:27;18.25;;;7.63;;
78169;SDS011;67412;49.892;14.490;2024-02-26T10:31:53;20.52;;;7.68;;
78169;SDS011;67412;49.892;14.490;2024-02-26T10:34:19;27.30;;;8.20;;
78169;SDS011;67412;49.892;14.490;2024-02-26T10:36:45;22.20;;;8.10;;
78169;SDS011;67412;49.892;14.490;2024-02-26T10:39:13;20.45;;;7.55;;
78169;SDS011;67412;49.892;14.490;2024-02-26T10:41:42;23.17;;;8.63;;
78169;SDS011;67412;49.892;14.490;2024-02-26T10:44:09;22.75;;;8.18;;
78169;SDS011;67412;49.892;14.490;2024-02-26T10:46:38;25.15;;;8.38;;
78169;SDS011;67412;49.892;14.490;2024-02-26T10:49:07;24.45;;;8.35;;
78169;SDS011;67412;49.892;14.490;2024-02-26T10:51:38;18.80;;;8.05;;
78169;SDS011;67412;49.892;14.490;2024-02-26T10:54:08;27.40;;;9.25;;
78169;SDS011;67412;49.892;14.490;2024-02-26T10:56:38;28.65;;;9.40;;
78169;SDS011;67412;49.892;14.490;2024-02-26T10:59:07;27.10;;;9.15;;
78169;SDS011;67412;49.892;14.490;2024-02-26T11:01:34;25.83;;;9.18;;
78169;SDS011;67412;49.892;14.490;2024-02-26T11:04:02;23.15;;;7.80;;
78169;SDS011;67412;49.892;14.490;2024-02-26T11:06:29;27.63;;;8.95;;
78169;SDS011;67412;49.892;14.490;2024-02-26T11:08:55;25.77;;;8.48;;
78169;SDS011;67412;49.892;14.490;2024-02-26T11:11:20;23.27;;;8.43;;
78169;SDS011;67412;49.892;14.490;2024-02-26T11:13:47;23.48;;;9.45;;
78169;SDS011;67412;49.892;14.490;2024-02-26T11:16:16;22.80;;;7.05;;
78169;SDS011;67412;49.892;14.490;2024-02-26T11:18:43;18.42;;;7.07;;
78169;SDS011;67412;49.892;14.490;2024-02-26T11:21:13;18.23;;;6.68;;
78169;SDS011;67412;49.892;14.490;2024-02-26T11:23:40;23.95;;;8.80;;
78169;SDS011;67412;49.892;14.490;2024-02-26T11:26:06;20.42;;;7.95;;
78169;SDS011;67412;49.892;14.490;2024-02-26T11:28:33;21.67;;;7.43;;
78169;SDS011;67412;49.892;14.490;2024-02-26T11:31:00;22.88;;;7.60;;
78169;SDS011;67412;49.892;14.490;2024-02-26T11:33:27;21.27;;;7.47;;
78169;SDS011;67412;49.892;14.490;2024-02-26T11:35:53;22.95;;;7.68;;
78169;SDS011;67412;49.892;14.490;2024-02-26T11:38:19;22.33;;;7.60;;
78169;SDS011;67412;49.892;14.490;2024-02-26T11:40:48;23.42;;;8.38;;
78169;SDS011;67412;49.892;14.490;2024-02-26T11:43:15;23.42;;;7.45;;
78169;SDS011;67412;49.892;14.490;2024-02-26T11:48:29;20.27;;;6.65;;
78169;SDS011;67412;49.892;14.490;2024-02-26T11:50:55;17.52;;;6.18;;
78169;SDS011;67412;49.892;14.490;2024-02-26T11:53:24;16.75;;;6.32;;
78169;SDS011;67412;49.892;14.490;2024-02-26T11:58:47;20.67;;;7.10;;
78169;SDS011;67412;49.892;14.490;2024-02-26T12:01:35;17.08;;;6.22;;
78169;SDS011;67412;49.892;14.490;2024-02-26T12:04:06;17.13;;;6.70;;
78169;SDS011;67412;49.892;14.490;2024-02-26T12:06:46;16.17;;;6.40;;
78169;SDS011;67412;49.892;14.490;2024-02-26T12:09:30;17.10;;;6.35;;
78169;SDS011;67412;49.892;14.490;2024-02-26T12:12:06;16.25;;;5.80;;
78169;SDS011;67412;49.892;14.490;2024-02-26T12:14:39;16.98;;;6.78;;
78169;SDS011;67412;49.892;14.490;2024-02-26T12:17:06;20.10;;;7.00;;
78169;SDS011;67412;49.892;14.490;2024-02-26T12:19:40;17.30;;;6.72;;
78169;SDS011;67412;49.892;14.490;2024-02-26T12:22:06;18.45;;;6.75;;
78169;SDS011;67412;49.892;14.490;2024-02-26T12:24:33;14.60;;;6.63;;
78169;SDS011;67412;49.892;14.490;2024-02-26T12:26:58;19.30;;;6.95;;
78169;SDS011;67412;49.892;14.490;2024-02-26T12:29:23;17.42;;;6.78;;
78169;SDS011;67412;49.892;14.490;2024-02-26T12:31:49;15.23;;;7.03;;
78169;SDS011;67412;49.892;14.490;2024-02-26T12:34:14;22.40;;;7.25;;
78169;SDS011;67412;49.892;14.490;2024-02-26T12:36:41;16.63;;;6.35;;
78169;SDS011;67412;49.892;14.490;2024-02-26T12:39:07;14.85;;;5.95;;
78169;SDS011;67412;49.892;14.490;2024-02-26T12:41:33;16.20;;;6.25;;
78169;SDS011;67412;49.892;14.490;2024-02-26T12:43:59;16.27;;;6.88;;
78169;SDS011;67412;49.892;14.490;2024-02-26T12:46:24;15.90;;;7.22;;
78169;SDS011;67412;49.892;14.490;2024-02-26T12:48:50;16.80;;;6.68;;
78169;SDS011;67412;49.892;14.490;2024-02-26T12:51:16;15.85;;;6.10;;
78169;SDS011;67412;49.892;14.490;2024-02-26T12:53:43;17.45;;;6.65;;
78169;SDS011;67412;49.892;14.490;2024-02-26T12:56:10;17.40;;;7.07;;
78169;SDS011;67412;49.892;14.490;2024-02-26T12:58:38;18.88;;;6.43;;
78169;SDS011;67412;49.892;14.490;2024-02-26T13:03:30;15.57;;;6.05;;
78169;SDS011;67412;49.892;14.490;2024-02-26T13:05:56;15.55;;;6.05;;
78169;SDS011;67412;49.892;14.490;2024-02-26T13:08:22;18.55;;;7.10;;
78169;SDS011;67412;49.892;14.490;2024-02-26T13:10:47;15.93;;;6.50;;
78169;SDS011;67412;49.892;14.490;2024-02-26T13:13:15;12.73;;;5.38;;
78169;SDS011;67412;49.892;14.490;2024-02-26T13:18:11;13.60;;;5.43;;
78169;SDS011;67412;49.892;14.490;2024-02-26T13:20:38;18.60;;;6.75;;
78169;SDS011;67412;49.892;14.490;2024-02-26T13:25:36;15.18;;;5.65;;
78169;SDS011;67412;49.892;14.490;2024-02-26T13:28:16;15.48;;;6.57;;
78169;SDS011;67412;49.892;14.490;2024-02-26T13:30:53;14.60;;;6.25;;
78169;SDS011;67412;49.892;14.490;2024-02-26T13:33:22;15.73;;;6.03;;
78169;SDS011;67412;49.892;14.490;2024-02-26T13:35:48;19.58;;;6.60;;
78169;SDS011;67412;49.892;14.490;2024-02-26T13:38:13;16.42;;;6.65;;
78169;SDS011;67412;49.892;14.490;2024-02-26T13:40:39;15.55;;;5.82;;
78169;SDS011;67412;49.892;14.490;2024-02-26T13:43:05;16.85;;;6.88;;
78169;SDS011;67412;49.892;14.490;2024-02-26T13:45:30;18.55;;;6.93;;
78169;SDS011;67412;49.892;14.490;2024-02-26T13:48:07;15.43;;;6.55;;
78169;SDS011;67412;49.892;14.490;2024-02-26T13:50:35;14.27;;;6.18;;
78169;SDS011;67412;49.892;14.490;2024-02-26T13:53:00;17.38;;;7.20;;
78169;SDS011;67412;49.892;14.490;2024-02-26T13:55:26;17.65;;;7.10;;
78169;SDS011;67412;49.892;14.490;2024-02-26T13:57:53;18.48;;;6.50;;
78169;SDS011;67412;49.892;14.490;2024-02-26T14:00:19;19.77;;;6.82;;
78169;SDS011;67412;49.892;14.490;2024-02-26T14:02:45;15.95;;;7.28;;
78169;SDS011;67412;49.892;14.490;2024-02-26T14:05:10;12.75;;;6.15;;
78169;SDS011;67412;49.892;14.490;2024-02-26T14:07:36;16.38;;;6.43;;
78169;SDS011;67412;49.892;14.490;2024-02-26T14:10:01;16.77;;;6.75;;
78169;SDS011;67412;49.892;14.490;2024-02-26T14:12:27;18.00;;;7.72;;
78169;SDS011;67412;49.892;14.490;2024-02-26T14:14:52;18.60;;;7.35;;
78169;SDS011;67412;49.892;14.490;2024-02-26T14:17:19;16.88;;;6.68;;
78169;SDS011;67412;49.892;14.490;2024-02-26T14:19:44;15.70;;;6.47;;
78169;SDS011;67412;49.892;14.490;2024-02-26T14:22:12;16.85;;;7.07;;
78169;SDS011;67412;49.892;14.490;2024-02-26T14:24:38;16.95;;;6.68;;
78169;SDS011;67412;49.892;14.490;2024-02-26T14:27:04;16.48;;;6.30;;
78169;SDS011;67412;49.892;14.490;2024-02-26T14:29:31;17.50;;;7.07;;
78169;SDS011;67412;49.892;14.490;2024-02-26T14:31:56;15.57;;;6.13;;